Terminal Aerodrome Forecast
Issued by NWS

Home | Current Version | Previous Version | Text Only | Print | Product List | Glossary On
Versions: 1 2 3 4 5 6 7 8 9 10 11 12 13 14 15 16 17 18 19 20 21 22 23 24 25 26
000
FTUS45 KRIW 201700
TAFPNA
TAF
KPNA 201720Z 2018/2118 22007KT 3SM -SN SCT012 OVC025
     FM210300 28007KT 4SM -SN SCT020 OVC035
     FM211100 28008KT 3SM -SN SCT012 OVC025
      AMD LTD TO CLD VIS AND WIND=

USA.gov is the U.S. government's official web portal to all federal, state and local government web resources and services.